Alamo, Nevada Weather observations

Data are for observation ending at time listed.
 Day   Time    Ave.   Ave.  Ave.  Vector   Max.   Stn.    Total    Solar   Ave.  
  of    of     Air    Rel.  Wind   Wind    Wind   Baro.  Precip.   Rad.    Soil  
Year   Day     Temp.  Hum.  Speed  Dir.    Gust   Pres.                    Temp. 
2014   (PST)    F      %     mph   deg.    mph     mb.     in.     W/m2     F   
------------------------------------------------------------------------------
 303    0:00   40.8    56    0.0     0      0.0   901.5    0.00       0    55.9
 303    0:10   40.2    57    0.2   252      1.1   901.7    0.00       0    55.7
 303    0:20   40.1    58    0.1   235      1.1   901.8    0.00       0    55.5
 303    0:30   40.0    60    0.3    50      1.3   901.8    0.00       0    55.4
 303    0:40   39.7    58    1.1   333      1.8   901.7    0.00       0    55.2
 303    0:50   39.8    56    0.7     3      1.6   901.6    0.00       0    55.1
 303    1:00   39.4    58    0.4    24      1.2   901.6    0.00       0    54.9
 303    1:10   38.5    61    0.5    23      1.3   901.7    0.00       0    54.8
 303    1:20   38.3    61    0.1    21      0.7   901.6    0.00       0    54.6
 303    1:30   38.3    62    0.3     6      1.0   901.6    0.00       0    54.4
 303    1:40   38.1    60    0.5    28      1.2   901.6    0.00       0    54.3
 303    1:50   37.7    64    1.0    18      1.8   901.5    0.00       0    54.2
 303    2:00   37.8    63    1.2    10      2.6   901.4    0.00       0    54.0
 303    2:10   37.6    63    0.7     9      1.9   901.4    0.00       0    53.9
 303    2:20   37.1    65    0.8   354      1.8   901.3    0.00       0    53.7
 303    2:30   36.9    66    0.3    50      1.1   901.2    0.00       0    53.6
 303    2:40   36.6    66    0.3   350      1.4   901.3    0.00       0    53.4
 303    2:50   36.3    66    0.2    57      2.2   901.2    0.00       0    53.3
 303    3:00   36.1    67    0.4    28      1.7   901.2    0.00       0    53.2
 303    3:10   36.2    65    0.2    54      1.2   901.1    0.00       0    53.0
 303    3:20   36.1    65    0.1    64      1.1   901.2    0.00       0    52.9
 303    3:30   36.2    64    0.4    34      1.6   901.3    0.00       0    52.8
 303    3:40   36.1    62    0.3     0      1.5   901.3    0.00       0    52.6
 303    3:50   36.0    63    0.0     2      0.7   901.4    0.00       0    52.5
 303    4:00   35.9    62    0.0    30      0.4   901.4    0.00       0    52.4
 303    4:10   35.9    63    0.0    26      0.5   901.4    0.00       0    52.3
 303    4:20   35.9    63    0.0     0      0.0   901.4    0.00       0    52.2
 303    4:30   35.8    63    0.1   283      1.4   901.4    0.00       0    52.1
 303    4:40   35.8    63    0.0    60      0.7   901.5    0.00       0    51.9
 303    4:50   35.5    63    0.1   289      0.8   901.6    0.00       0    51.8
 303    5:00   35.4    63    0.2   349      1.2   901.6    0.00       0    51.7
 303    5:10   35.2    64    0.5    16      1.5   901.6    0.00       0    51.6
 303    5:20   34.9    65    0.6    16      1.5   901.6    0.00       0    51.5
 303    5:30   34.5    66    0.5   352      1.2   901.7    0.00       0    51.4
 303    5:40   34.2    66    0.6    18      1.6   901.8    0.00       0    51.3
 303    5:50   34.0    69    1.0    12      1.9   901.9    0.00       0    51.2
 303    6:00   34.1    69    0.8   351      1.8   901.9    0.00       0    51.0
 303    6:10   34.0    70    0.2   308      0.9   902.0    0.00       0    50.9
 303    6:20   33.9    70    0.0    50      0.9   902.1    0.00       5    50.8
 303    6:30   33.6    72    0.0    70      0.4   902.1    0.00      13    50.8
 303    6:40   33.9    73    0.1    53      1.4   902.2    0.00      14    50.7
 303    6:50   34.4    72    0.0     0      0.0   902.3    0.00      18    50.6
 303    7:00   35.7    70    0.1    45      0.8   902.4    0.00      26    50.5
 303    7:10   37.0    65    0.1   288      0.9   902.6    0.00      25    50.5
 303    7:20   39.1    59    0.1   232      1.2   902.6    0.00      31    50.5
 303    7:30   42.2    49    1.2   288      3.1   902.8    0.00      31    50.5
 303    7:40   46.1    41    0.8     7      2.3   902.8    0.00      29    50.6
 303    7:50   48.3    39    1.0   335      2.9   902.8    0.00      27    50.6
 303    8:00   49.9    37    2.2   303      3.9   902.8    0.00      31    50.7
 303    8:10   50.8    33    2.6   324      5.0   902.7    0.00      27    50.8
 303    8:20   51.9    34    1.9   358      4.6   902.7    0.00      27    51.0
 303    8:30   53.2    32    2.7     4      4.8   902.5    0.00      31    51.2
 303    8:40   54.0    32    2.7     6      4.5   902.4    0.00      38    51.5
 303    8:50   55.0    31    1.7     3      4.5   902.2    0.00      49    51.7
 303    9:00   56.2    30    2.4     9      4.8   902.2    0.00      51    51.9
 303    9:10   57.4    29    2.5    14      4.7   902.1    0.00      47    52.1
 303    9:20   58.4    28    2.7    12      4.9   901.9    0.00      46    52.3
 303    9:30   59.6    27    2.4     7      5.1   901.8    0.00      47    52.5
 303    9:40   61.2    26    2.9   343      5.2   901.7    0.00      50    52.7
 303    9:50   62.8    24    2.4   348      4.4   901.5    0.00      54    53.0
 303   10:00   63.7    22    2.3    12      4.6   901.4    0.00      54    53.3
 303   10:10   64.9    22    2.5   357      4.9   901.3    0.00      57    53.6
 303   10:20   66.5    22    2.3   333      5.3   901.1    0.00      66    54.2
 303   10:30   67.6    20    1.9   343      5.3   901.0    0.00      86    54.8
 303   10:40   68.2    21    2.0   333      4.1   900.8    0.00     124    55.8
 303   10:50   69.2    18    2.8   349      5.7   900.7    0.00     127    56.8
 303   11:00   69.7    18    1.5    14      5.0   900.5    0.00      90    57.6
 303   11:10   70.6    17    2.8    35      5.6   900.4    0.00     119    58.3
 303   11:20   71.5    16    1.7     4      5.3   900.1    0.00     315    58.8
 303   11:30   73.1    15    2.0   338      5.1   899.9    0.00     611    59.3
 303   11:40   73.5    15    0.7    18      3.2   899.6    0.00     514    59.8
 303   11:50   74.1    15    0.6    52      2.3   899.5    0.00     568    60.4
 303   12:00   75.7    14    0.6   204      2.3   899.1    0.00     581    61.3
 303   12:10   78.0    14    0.6   301      2.6   898.9    0.00     732    62.2
 303   12:20   78.6    13    1.3   192      4.7   898.9    0.00     715    63.4
 303   12:30   78.6    13    1.9   201      5.1   899.1    0.00     696    64.6
 303   12:40   78.6    13    2.2   204      4.3   899.0    0.00     693    65.7
 303   12:50   78.3    14    2.2   198      4.5   898.3    0.00     524    66.7
 303   13:00   78.9    14    2.5   195      5.8   898.0    0.00     669    67.5
 303   13:10   79.8    13    2.1   197      4.2   897.8    0.00     585    68.3
 303   13:20   79.5    14    2.6   199      5.7   897.7    0.00     613    68.9
 303   13:30   80.1    14    2.7   187      5.4   897.6    0.00     616    69.5
 303   13:40   80.2    13    2.6   197      5.1   897.4    0.00     599    70.1
 303   13:50   81.3    13    2.2   211      6.0   897.3    0.00     532    70.7
 303   14:00   81.2    13    2.7   202      5.7   897.2    0.00     551    71.3
 303   14:10   81.1    14    3.0   195      7.7   897.1    0.00     489    71.7
 303   14:20   80.1    16    4.0   187      9.0   897.0    0.00     499    72.1
 303   14:30   79.4    16    4.4   188      8.2   897.0    0.00     438    72.3
 303   14:40   78.9    17    3.8   182      8.3   897.0    0.00     381    72.4
 303   14:50   78.3    17    4.6   186      8.0   897.0    0.00     405    72.4
 303   15:00   78.2    17    4.4   184      8.8   897.0    0.00     363    72.4
 303   15:10   78.3    17    3.3   190      7.6   897.0    0.00     343    72.3
 303   15:20   78.0    17    3.2   185      9.5   897.0    0.00     281    72.2
 303   15:30   78.1    17    2.9   189      8.4   896.9    0.00     276    72.0
 303   15:40   78.0    17    2.7   186      6.9   896.9    0.00     214    71.8
 303   15:50   77.1    18    2.0   183      6.2   896.9    0.00     188    71.5
 303   16:00   77.0    18    1.3   188      3.4   896.9    0.00      97    71.0
 303   16:10   74.8    18    1.5   177      5.3   896.9    0.00      29    70.5
 303   16:20   73.7    19    1.5   174      4.6   896.8    0.00      23    70.0
 303   16:30   73.3    19    1.3   168      5.7   896.7    0.00      16    69.5
 303   16:40   73.3    18    1.0   183      3.2   896.7    0.00      13    69.0
 303   16:50   72.6    18    0.9   173      3.9   896.7    0.00       3    68.5
 303   17:00   72.2    18    1.7   186      4.4   896.6    0.00       0    68.1
 303   17:10   70.4    21    1.5   191      3.7   896.7    0.00       0    67.7
 303   17:20   68.8    22    0.7   202      2.3   896.8    0.00       0    67.4
 303   17:30   67.4    23    0.4   201      1.5   896.8    0.00       0    67.0
 303   17:40   66.4    24    0.3   192      1.5   896.9    0.00       0    66.6
 303   17:50   65.1    26    0.3   231      1.2   896.9    0.00       0    66.3
 303   18:00   63.5    28    0.6   200      1.8   896.9    0.00       0    65.9
 303   18:10   61.6    30    0.1   206      1.3   897.0    0.00       0    65.5
 303   18:20   61.3    29    0.1   229      1.8   897.0    0.00       0    65.2
 303   18:30   61.5    29    0.1   236      1.1   897.0    0.00       0    64.8
 303   18:40   61.5    30    0.2   224      1.2   897.1    0.00       0    64.5
 303   18:50   60.7    31    0.0    31      0.7   897.2    0.00       0    64.2
 303   19:00   59.0    37    0.2    67      1.2   897.2    0.00       0    64.0
 303   19:10   57.6    39    0.1    49      0.8   897.1    0.00       0    63.7
 303   19:20   57.0    40    1.1   268      2.2   897.1    0.00       0    63.4
 303   19:30   57.5    37    0.3   237      1.8   897.2    0.00       0    63.1
 303   19:40   57.8    38    0.6   359      2.0   897.2    0.00       0    62.9
 303   19:50   57.1    40    1.3   359      2.0   897.2    0.00       0    62.7
 303   20:00   56.4    41    0.3   335      1.2   897.2    0.00       0    62.5
 303   20:10   55.7    42    0.6    14      1.2   897.3    0.00       0    62.3
 303   20:20   55.0    44    0.6    36      1.2   897.2    0.00       0    62.1
 303   20:30   54.5    46    0.9   300      2.0   897.2    0.00       0    61.9
 303   20:40   54.6    46    1.0     2      1.8   897.3    0.00       0    61.7
 303   20:50   54.4    46    1.1    14      2.2   897.4    0.00       0    61.6
 303   21:00   53.8    48    1.1   349      2.0   897.9    0.00       0    61.4
 303   21:10   53.1    49    0.6   357      1.5   897.9    0.00       0    61.2
 303   21:20   52.4    50    0.8     8      1.8   897.8    0.00       0    61.1
 303   21:30   52.0    50    0.7    25      2.0   897.5    0.00       0    60.8
 303   21:40   51.7    49    1.0    11      2.3   897.3    0.00       0    60.6
 303   21:50   51.5    48    1.0    15      1.8   897.5    0.00       0    60.4
 303   22:00   51.3    46    1.3    24      2.9   897.3    0.00       0    60.2
 303   22:10   51.1    46    2.4    35      4.7   897.2    0.00       0    60.0
 303   22:20   51.5    45    1.4   318      2.9   897.0    0.00       0    59.8
 303   22:30   51.5    45    1.4     5      3.0   897.0    0.00       0    59.6
 303   22:40   51.8    43    1.8    38      4.2   897.0    0.00       0    59.5
 303   22:50   51.3    44    0.7    24      2.0   896.9    0.00       0    59.3

Return to Alamo, Nevada graphs page.


Western Regional Climate Center,wrcc@dri.edu